createdAt,value
2022-12-19T14:23:36.995Z,29.67
2022-12-19T14:28:16.786Z,28.75
2022-12-19T14:29:06.428Z,24.73
2022-12-19T14:31:35.793Z,21.92
2022-12-19T14:34:35.680Z,22.75
2022-12-19T14:36:54.051Z,19.85
2022-12-19T14:39:33.284Z,21.33
2022-12-19T14:43:57.549Z,19.73
2022-12-19T14:54:06.845Z,16.90
2022-12-19T14:54:11.398Z,19.17
2022-12-19T14:54:21.438Z,23.77
2022-12-19T14:57:29.155Z,17.17
2022-12-19T15:00:50.944Z,18.67
2022-12-19T15:03:18.773Z,25.10
2022-12-19T15:05:46.857Z,16.30
2022-12-19T15:08:14.822Z,15.65
2022-12-19T15:11:08.134Z,17.00
2022-12-19T15:14:56.506Z,15.20
2022-12-19T15:16:26.538Z,15.38
2022-12-19T15:18:57.032Z,17.23
2022-12-19T15:21:25.071Z,15.20
2022-12-19T15:23:52.854Z,15.63
2022-12-19T15:26:22.143Z,15.40
2022-12-19T15:28:52.387Z,17.38
2022-12-19T15:31:29.880Z,35.05
2022-12-19T15:36:45.839Z,46.60
2022-12-19T15:39:15.057Z,29.67
2022-12-19T15:41:43.122Z,19.77
2022-12-19T15:44:17.241Z,20.17
2022-12-19T15:46:48.971Z,18.90
2022-12-19T15:49:17.956Z,15.02
2022-12-19T15:51:45.757Z,15.48
2022-12-19T15:57:01.785Z,19.45
2022-12-19T15:59:37.723Z,17.85
2022-12-19T16:02:16.870Z,15.40
2022-12-19T16:04:45.055Z,13.32
2022-12-19T16:07:15.774Z,14.48
2022-12-19T16:09:43.588Z,16.42
2022-12-19T16:12:15.315Z,14.82
2022-12-19T16:14:44.832Z,15.57
2022-12-19T16:17:16.412Z,15.40
2022-12-19T16:19:45.491Z,15.48
2022-12-19T16:22:18.125Z,16.98
2022-12-19T16:24:45.872Z,15.95
2022-12-19T16:27:19.703Z,19.90
2022-12-19T16:29:48.924Z,15.00
2022-12-19T16:32:16.743Z,14.18
2022-12-19T16:34:44.567Z,16.07
2022-12-19T16:37:12.944Z,20.70
2022-12-19T16:39:40.702Z,15.70
2022-12-19T16:42:15.071Z,15.80
2022-12-19T16:44:43.714Z,15.13
2022-12-19T16:47:15.042Z,14.40
2022-12-19T16:49:42.842Z,13.70
2022-12-19T16:52:10.568Z,14.55
2022-12-19T16:54:38.358Z,14.68
2022-12-19T16:57:07.208Z,14.07
2022-12-19T16:59:37.498Z,15.10
2022-12-19T17:02:28.409Z,16.83
2022-12-19T17:04:56.664Z,14.10
2022-12-19T17:07:24.431Z,15.68
2022-12-19T17:09:52.177Z,13.38
2022-12-19T17:13:34.466Z,14.25
2022-12-19T17:16:02.566Z,13.70
2022-12-19T17:18:33.429Z,14.07
2022-12-19T17:21:01.603Z,14.30
2022-12-19T17:23:32.441Z,14.35
2022-12-19T17:26:01.031Z,15.30
2022-12-19T17:28:29.881Z,15.63
2022-12-19T17:31:00.880Z,14.82
2022-12-19T17:33:33.947Z,12.63
2022-12-19T17:36:01.749Z,11.93
2022-12-19T17:38:29.663Z,13.07
2022-12-19T17:40:57.392Z,12.15
2022-12-19T17:43:25.163Z,15.07
2022-12-19T17:45:53.084Z,15.32
2022-12-19T17:48:27.635Z,16.15
2022-12-19T17:50:55.989Z,13.57
2022-12-19T17:53:23.915Z,14.27
2022-12-19T17:55:51.937Z,13.75
2022-12-19T17:58:19.812Z,14.35
2022-12-19T18:00:48.275Z,15.98
2022-12-19T18:03:22.258Z,16.27
2022-12-19T18:05:54.794Z,15.15
2022-12-19T18:08:25.745Z,36.93
2022-12-19T18:10:53.573Z,19.67
2022-12-19T18:13:21.588Z,10.35
2022-12-19T18:15:49.462Z,11.55
2022-12-19T18:18:20.653Z,10.95
2022-12-19T18:20:48.485Z,10.55
2022-12-19T18:23:19.780Z,10.00
2022-12-19T18:25:47.939Z,12.52
2022-12-19T18:28:16.679Z,10.02
2022-12-19T18:30:44.781Z,11.02
2022-12-19T18:33:16.929Z,8.13
2022-12-19T18:35:47.782Z,13.80
2022-12-19T18:38:17.037Z,9.20
2022-12-19T18:40:46.719Z,9.88
2022-12-19T18:43:14.842Z,7.82
2022-12-19T18:45:44.311Z,7.78
2022-12-19T18:48:17.411Z,7.13
2022-12-19T18:50:45.388Z,7.65
2022-12-19T18:53:13.840Z,8.48
2022-12-19T18:55:41.606Z,7.82
2022-12-19T18:58:10.911Z,8.13
2022-12-19T19:00:39.214Z,7.93
2022-12-19T19:03:11.668Z,8.98
2022-12-19T19:05:40.444Z,8.00
2022-12-19T19:08:16.299Z,7.75
2022-12-19T19:10:44.171Z,8.95
2022-12-19T19:13:13.984Z,7.75
2022-12-19T19:15:46.589Z,8.32
2022-12-19T19:18:15.802Z,13.15
2022-12-19T19:20:44.813Z,8.93
2022-12-19T19:23:13.567Z,8.38
2022-12-19T19:25:41.770Z,7.40
2022-12-19T19:28:10.468Z,6.80
2022-12-19T19:30:40.616Z,7.95
2022-12-19T19:33:11.244Z,11.05
2022-12-19T19:35:39.583Z,10.45
2022-12-19T19:38:08.716Z,9.63
2022-12-19T19:40:37.080Z,7.25
2022-12-19T19:43:05.456Z,8.38
2022-12-19T19:45:36.830Z,7.18
2022-12-19T19:48:10.483Z,11.35
2022-12-19T19:50:38.148Z,14.30
2022-12-19T19:53:06.018Z,17.20
2022-12-19T19:55:33.728Z,10.63
2022-12-19T19:58:01.508Z,10.10
2022-12-19T20:00:29.170Z,8.73
2022-12-19T20:02:57.014Z,8.27
2022-12-19T20:05:26.240Z,10.93
2022-12-19T20:07:53.976Z,10.57
2022-12-19T20:10:21.703Z,11.52
2022-12-19T20:12:49.354Z,8.48
2022-12-19T20:15:17.143Z,7.82
2022-12-19T20:17:44.838Z,7.15
2022-12-19T20:20:13.356Z,10.68
2022-12-19T20:22:42.541Z,8.20
2022-12-19T20:25:10.257Z,8.20
2022-12-19T20:27:38.074Z,6.50
2022-12-19T20:30:06.928Z,8.32
2022-12-19T20:32:34.667Z,7.07
2022-12-19T20:35:02.404Z,11.00
2022-12-19T20:37:30.408Z,7.78
2022-12-19T20:39:59.557Z,6.63
2022-12-19T20:42:27.237Z,8.23
2022-12-19T20:44:54.953Z,7.63
2022-12-19T20:47:24.472Z,6.68
2022-12-19T20:49:52.215Z,7.47
2022-12-19T20:52:20.163Z,8.25
2022-12-19T20:54:47.867Z,8.57
2022-12-19T20:57:17.070Z,6.40
2022-12-19T20:59:44.725Z,6.77
2022-12-19T21:02:12.683Z,6.85
2022-12-19T21:04:40.903Z,9.70
2022-12-19T21:07:08.649Z,6.45
2022-12-19T21:09:36.308Z,8.25
2022-12-19T21:12:04.268Z,8.15
2022-12-19T21:14:33.642Z,6.88
2022-12-19T21:17:01.413Z,7.10
2022-12-19T21:19:29.130Z,7.70
2022-12-19T21:21:56.922Z,8.77
2022-12-19T21:24:24.823Z,9.00
2022-12-19T21:26:57.766Z,7.32
2022-12-19T21:29:26.080Z,7.18
2022-12-19T21:31:55.293Z,6.72
2022-12-19T21:34:23.123Z,8.27
2022-12-19T21:36:50.799Z,8.52
2022-12-19T21:39:20.583Z,12.80
2022-12-19T21:41:48.314Z,24.73
2022-12-19T21:44:15.969Z,10.60
2022-12-19T21:46:43.985Z,9.07
2022-12-19T21:49:13.240Z,8.65
2022-12-19T21:51:40.931Z,14.63
2022-12-19T21:54:08.815Z,7.40
2022-12-19T21:56:38.718Z,10.60
2022-12-19T21:59:07.762Z,7.03
2022-12-19T22:01:35.703Z,6.63
2022-12-19T22:04:06.341Z,6.55
2022-12-19T22:06:37.217Z,7.18
2022-12-19T22:09:07.179Z,6.90
2022-12-19T22:11:36.469Z,6.60
2022-12-19T22:14:05.973Z,7.97
2022-12-19T22:16:34.011Z,7.00
2022-12-19T22:19:01.875Z,6.63
2022-12-19T22:21:29.725Z,6.57
2022-12-19T22:23:59.359Z,7.27
2022-12-19T22:26:29.411Z,7.47
2022-12-19T22:28:57.690Z,6.20
2022-12-19T22:31:26.966Z,5.38
2022-12-19T22:33:56.317Z,6.27
2022-12-19T22:36:28.458Z,5.95
2022-12-19T22:38:57.673Z,6.13
2022-12-19T22:41:27.423Z,6.30
2022-12-19T22:43:55.893Z,5.43
2022-12-19T22:46:26.146Z,6.15
2022-12-19T22:48:55.874Z,4.90
2022-12-19T22:51:23.905Z,6.18
2022-12-19T22:53:51.936Z,5.82
2022-12-19T22:56:21.804Z,5.30
2022-12-19T22:58:52.784Z,6.70
2022-12-19T23:01:22.334Z,6.53
2022-12-19T23:03:51.710Z,6.15
2022-12-19T23:06:20.162Z,6.57
2022-12-19T23:08:48.028Z,5.75
2022-12-19T23:11:18.068Z,6.85
2022-12-19T23:13:48.240Z,5.15
2022-12-19T23:16:17.667Z,6.40
2022-12-19T23:18:45.605Z,6.47
2022-12-19T23:21:15.515Z,4.22
2022-12-19T23:23:44.201Z,5.30
2022-12-19T23:26:16.027Z,6.35
2022-12-19T23:28:44.287Z,4.53
2022-12-19T23:31:13.955Z,4.72
2022-12-19T23:33:43.058Z,4.87
2022-12-19T23:36:11.302Z,4.70
2022-12-19T23:38:39.070Z,4.03
2022-12-19T23:41:09.544Z,5.20
2022-12-19T23:43:37.766Z,6.45
2022-12-19T23:46:06.791Z,4.50
2022-12-19T23:48:34.616Z,5.60
2022-12-19T23:51:05.777Z,4.87
2022-12-19T23:53:34.319Z,4.97
2022-12-19T23:56:02.868Z,4.28
2022-12-19T23:58:30.690Z,5.40
